Time;durP1;ratioP1;P1;durP2;ratioP2;P2;SDS_P1;SDS_P2;PMS_P1;PMS_P2;Temp;Humidity;BMP_temperature;BMP_pressure;BME280_temperature;BME280_humidity;BME280_pressure;Samples;Min_cycle;Max_cycle;Signal;HPM_P1;HPM_P2
2023/08/31 00:01:13;;;;;;;;;;;13.30;99.90;;;;;;7612778;19;20248;-73
2023/08/31 00:03:46;;;;;;;;;;;13.30;99.90;;;;;;7609537;19;20316;-74
2023/08/31 00:06:18;;;;;;;;;;;13.30;99.90;;;;;;7611457;19;19930;-74
2023/08/31 00:08:51;;;;;;;;;;;13.30;99.90;;;;;;7608396;19;19918;-75
2023/08/31 00:11:23;;;;;;;;;;;13.20;99.90;;;;;;7610621;19;19925;-75
2023/08/31 00:13:55;;;;;;;;;;;13.20;99.90;;;;;;7613478;19;20816;-74
2023/08/31 00:16:28;;;;;;;;;;;13.20;99.90;;;;;;7611902;19;19922;-74
2023/08/31 00:19:00;;;;;;;;;;;13.20;99.90;;;;;;7611419;19;19952;-74
2023/08/31 00:21:32;;;;;;;;;;;13.20;99.90;;;;;;7611779;19;19992;-76
2023/08/31 00:24:05;;;;;;;;;;;13.10;99.90;;;;;;7614313;19;19930;-75
2023/08/31 00:26:40;;;;;;;;;;;13.10;99.90;;;;;;7606654;19;19927;-75
2023/08/31 00:29:14;;;;;;;;;;;13.10;99.90;;;;;;7610596;19;19923;-75
2023/08/31 00:31:48;;;;;;;;;;;13.10;99.90;;;;;;7610482;19;20576;-75
2023/08/31 00:34:20;;;;;;;;;;;13.10;99.90;;;;;;7611050;19;19925;-75
2023/08/31 00:36:52;;;;;;;;;;;13.00;99.90;;;;;;7606331;19;19925;-75
2023/08/31 00:39:24;;;;;;;;;;;13.10;99.90;;;;;;7611414;19;19926;-75
2023/08/31 00:41:56;;;;;;;;;;;13.00;99.90;;;;;;7609743;19;19926;-75
2023/08/31 00:44:29;;;;;;;;;;;13.00;99.90;;;;;;7610940;19;19954;-74
2023/08/31 00:47:04;;;;;;;;;;;13.00;99.90;;;;;;7611317;19;19919;-75
2023/08/31 00:49:37;;;;;;;;;;;13.00;99.90;;;;;;7608240;19;19930;-76
2023/08/31 00:52:09;;;;;;;;;;;13.10;99.90;;;;;;7615789;19;19927;-75
2023/08/31 00:54:42;;;;;;;;;;;13.00;99.90;;;;;;7609381;19;19959;-75
2023/08/31 00:57:15;;;;;;;;;;;13.00;99.90;;;;;;7608367;19;19919;-75
2023/08/31 00:59:47;;;;;;;;;;;13.00;99.90;;;;;;7608562;19;19923;-74
2023/08/31 01:02:30;;;;;;;;;;;12.90;99.90;;;;;;7611687;19;19922;-74
2023/08/31 01:05:34;;;;;;;;;;;12.90;99.90;;;;;;7608848;19;19922;-73
2023/08/31 01:08:09;;;;;;;;;;;12.90;99.90;;;;;;7607705;19;20973;-74
2023/08/31 01:10:46;;;;;;;;;;;12.90;99.90;;;;;;7607180;19;19962;-73
2023/08/31 01:13:22;;;;;;;;;;;12.90;99.90;;;;;;7603363;19;19982;-74
2023/08/31 01:15:56;;;;;;;;;;;13.00;99.90;;;;;;7609624;19;20605;-74
2023/08/31 01:18:28;;;;;;;;;;;12.90;99.90;;;;;;7610981;19;20368;-74
2023/08/31 01:21:20;;;;;;;;;;;13.00;99.90;;;;;;7612345;19;21183;-75
2023/08/31 01:23:55;;;;;;;;;;;12.90;99.90;;;;;;7610489;19;20009;-74
2023/08/31 01:26:28;;;;;;;;;;;12.90;99.90;;;;;;7606420;19;19929;-74
2023/08/31 01:29:00;;;;;;;;;;;12.90;99.90;;;;;;7610689;19;19918;-74
2023/08/31 01:31:32;;;;;;;;;;;12.90;99.90;;;;;;7613381;19;20408;-74
2023/08/31 01:34:05;;;;;;;;;;;12.90;99.90;;;;;;7608976;19;20009;-75
2023/08/31 01:36:42;;;;;;;;;;;12.90;99.90;;;;;;7609746;19;19941;-74
2023/08/31 01:39:15;;;;;;;;;;;13.00;99.90;;;;;;7610983;19;20349;-74
2023/08/31 01:41:55;;;;;;;;;;;12.80;99.90;;;;;;7608533;19;19919;-74
2023/08/31 01:44:30;;;;;;;;;;;12.80;99.90;;;;;;7609453;19;19915;-73
2023/08/31 01:47:05;;;;;;;;;;;12.90;99.90;;;;;;7605086;19;20518;-73
2023/08/31 01:49:39;;;;;;;;;;;12.90;99.90;;;;;;7612197;19;19921;-74
2023/08/31 01:52:11;;;;;;;;;;;12.90;99.90;;;;;;7607463;19;19930;-74
2023/08/31 01:54:43;;;;;;;;;;;13.00;99.90;;;;;;7607818;19;19937;-74
2023/08/31 01:57:16;;;;;;;;;;;13.00;99.90;;;;;;7611709;19;19939;-73
2023/08/31 02:00:05;;;;;;;;;;;13.00;99.90;;;;;;7607208;19;22275;-74
2023/08/31 02:02:45;;;;;;;;;;;13.00;99.90;;;;;;7609848;19;19941;-73
2023/08/31 02:05:18;;;;;;;;;;;13.00;99.90;;;;;;7608596;19;19926;-74
2023/08/31 02:07:50;;;;;;;;;;;13.10;99.90;;;;;;7606559;19;19994;-74
2023/08/31 02:10:22;;;;;;;;;;;13.10;99.90;;;;;;7608562;19;20084;-74
2023/08/31 02:12:54;;;;;;;;;;;13.10;99.90;;;;;;7608817;19;19967;-73
2023/08/31 02:15:26;;;;;;;;;;;13.20;99.90;;;;;;7617247;19;19962;-74
2023/08/31 02:17:58;;;;;;;;;;;13.20;99.90;;;;;;7612924;19;19919;-74
2023/08/31 02:20:31;;;;;;;;;;;13.20;99.90;;;;;;7616226;19;19922;-75
2023/08/31 02:23:03;;;;;;;;;;;13.20;99.90;;;;;;7610995;19;19918;-76
2023/08/31 02:25:35;;;;;;;;;;;13.20;99.90;;;;;;7616882;19;19926;-74
2023/08/31 02:28:08;;;;;;;;;;;13.30;99.90;;;;;;7600387;19;19958;-74
2023/08/31 02:30:43;;;;;;;;;;;13.30;99.90;;;;;;7615761;19;20321;-75
2023/08/31 02:33:15;;;;;;;;;;;13.30;99.90;;;;;;7612141;19;19926;-75
2023/08/31 02:35:47;;;;;;;;;;;13.30;99.90;;;;;;7615415;19;19934;-74
2023/08/31 02:38:23;;;;;;;;;;;13.20;99.90;;;;;;7614329;19;20583;-75
2023/08/31 02:40:55;;;;;;;;;;;13.20;99.90;;;;;;7614273;19;19926;-75
2023/08/31 02:43:28;;;;;;;;;;;13.20;99.90;;;;;;7618157;19;19925;-74
2023/08/31 02:46:01;;;;;;;;;;;13.20;99.90;;;;;;7613647;19;22137;-74
2023/08/31 02:48:33;;;;;;;;;;;13.10;99.90;;;;;;7614619;19;20408;-75
2023/08/31 02:51:06;;;;;;;;;;;13.00;99.90;;;;;;7611400;19;19952;-74
2023/08/31 02:53:38;;;;;;;;;;;12.90;99.90;;;;;;7618012;19;19960;-75
2023/08/31 02:56:10;;;;;;;;;;;12.90;99.90;;;;;;7609264;19;19987;-75
2023/08/31 02:58:42;;;;;;;;;;;12.90;99.90;;;;;;7615379;19;19933;-75
2023/08/31 03:01:14;;;;;;;;;;;13.00;99.90;;;;;;7611318;19;20764;-74
2023/08/31 03:03:51;;;;;;;;;;;12.90;99.90;;;;;;7614673;19;20646;-74
2023/08/31 03:06:25;;;;;;;;;;;12.90;99.90;;;;;;7613656;19;20017;-75
2023/08/31 03:08:58;;;;;;;;;;;12.90;99.90;;;;;;7609372;19;19926;-75
2023/08/31 03:11:30;;;;;;;;;;;12.90;99.90;;;;;;7613808;19;19926;-75
2023/08/31 03:14:03;;;;;;;;;;;12.90;99.90;;;;;;7614038;19;19925;-74
2023/08/31 03:16:36;;;;;;;;;;;12.90;99.90;;;;;;7616721;19;19946;-75
2023/08/31 03:19:09;;;;;;;;;;;13.00;99.90;;;;;;7610399;19;20804;-74
2023/08/31 03:21:41;;;;;;;;;;;12.90;99.90;;;;;;7610967;19;20588;-75
2023/08/31 03:24:13;;;;;;;;;;;12.90;99.90;;;;;;7609580;19;19934;-75
2023/08/31 03:26:45;;;;;;;;;;;12.90;99.90;;;;;;7612955;19;19926;-74
2023/08/31 03:29:17;;;;;;;;;;;12.80;99.90;;;;;;7614726;19;19918;-75
2023/08/31 03:31:49;;;;;;;;;;;12.90;99.90;;;;;;7615857;19;20351;-74
2023/08/31 03:34:21;;;;;;;;;;;12.80;99.90;;;;;;7611603;19;19944;-74
2023/08/31 03:36:54;;;;;;;;;;;12.80;99.90;;;;;;7615042;19;20316;-75
2023/08/31 03:39:26;;;;;;;;;;;12.80;99.90;;;;;;7618117;19;19950;-75
2023/08/31 03:41:59;;;;;;;;;;;12.80;99.90;;;;;;7613757;19;20462;-74
2023/08/31 03:44:31;;;;;;;;;;;12.70;99.90;;;;;;7613020;19;19915;-75
2023/08/31 03:47:04;;;;;;;;;;;12.80;99.90;;;;;;7612404;19;19922;-74
2023/08/31 03:49:36;;;;;;;;;;;12.80;99.90;;;;;;7599318;19;20595;-75
2023/08/31 03:52:09;;;;;;;;;;;12.70;99.90;;;;;;7605812;19;19933;-73
2023/08/31 03:54:41;;;;;;;;;;;12.70;99.90;;;;;;7610388;19;19956;-75
2023/08/31 03:57:13;;;;;;;;;;;12.70;99.90;;;;;;7609548;19;19919;-73
2023/08/31 03:59:45;;;;;;;;;;;12.60;99.90;;;;;;7619780;19;20467;-73
2023/08/31 04:02:17;;;;;;;;;;;12.70;99.90;;;;;;7613187;19;19934;-74
2023/08/31 04:04:50;;;;;;;;;;;12.70;99.90;;;;;;7615124;19;19923;-74
2023/08/31 04:07:22;;;;;;;;;;;12.70;99.90;;;;;;7610113;19;19926;-74
2023/08/31 04:09:54;;;;;;;;;;;12.80;99.90;;;;;;7616861;19;19921;-74
2023/08/31 04:12:29;;;;;;;;;;;12.80;99.90;;;;;;7614155;19;19922;-73
2023/08/31 04:15:04;;;;;;;;;;;12.80;99.90;;;;;;7613304;19;19926;-74
2023/08/31 04:17:36;;;;;;;;;;;12.70;99.90;;;;;;7609532;19;19930;-73
2023/08/31 04:20:09;;;;;;;;;;;12.70;99.90;;;;;;7616476;19;19918;-74
2023/08/31 04:22:41;;;;;;;;;;;12.70;99.90;;;;;;7615377;19;19922;-73
2023/08/31 04:25:13;;;;;;;;;;;12.70;99.90;;;;;;7618815;19;19918;-74
2023/08/31 04:27:45;;;;;;;;;;;12.80;99.90;;;;;;7617438;19;19922;-74
2023/08/31 04:30:18;;;;;;;;;;;12.80;99.90;;;;;;7616044;19;19938;-73
2023/08/31 04:32:58;;;;;;;;;;;12.70;99.90;;;;;;7617375;19;19915;-73
2023/08/31 04:35:31;;;;;;;;;;;12.70;99.90;;;;;;7611734;19;20979;-74
2023/08/31 04:38:05;;;;;;;;;;;12.70;99.90;;;;;;7613894;19;19926;-74
2023/08/31 04:40:37;;;;;;;;;;;12.80;99.90;;;;;;7615064;19;19929;-73
2023/08/31 04:43:10;;;;;;;;;;;12.90;99.90;;;;;;7603216;19;19919;-74
2023/08/31 04:45:43;;;;;;;;;;;12.90;99.90;;;;;;7612853;19;19914;-74
2023/08/31 04:48:16;;;;;;;;;;;13.00;99.90;;;;;;7612770;19;19918;-74
2023/08/31 04:50:48;;;;;;;;;;;13.00;99.90;;;;;;7617619;19;19923;-73
2023/08/31 04:53:20;;;;;;;;;;;13.00;99.90;;;;;;7609059;19;19925;-73
2023/08/31 04:55:53;;;;;;;;;;;13.00;99.90;;;;;;7618126;19;19989;-74
2023/08/31 04:58:25;;;;;;;;;;;13.00;99.90;;;;;;7610614;19;20915;-73
2023/08/31 05:00:57;;;;;;;;;;;13.00;99.90;;;;;;7617762;19;20753;-73
2023/08/31 05:03:29;;;;;;;;;;;13.10;99.90;;;;;;7615483;19;20278;-73
2023/08/31 05:06:04;;;;;;;;;;;13.10;99.90;;;;;;7614820;19;19918;-73
2023/08/31 05:08:36;;;;;;;;;;;13.10;99.90;;;;;;7612920;19;20572;-74
2023/08/31 05:11:08;;;;;;;;;;;13.00;99.90;;;;;;7615007;19;20487;-74
2023/08/31 05:13:44;;;;;;;;;;;13.00;99.90;;;;;;7613512;19;19950;-74
2023/08/31 05:16:16;;;;;;;;;;;13.00;99.90;;;;;;7616879;19;20019;-73
2023/08/31 05:18:48;;;;;;;;;;;13.00;99.90;;;;;;7613937;19;20320;-73
2023/08/31 05:21:21;;;;;;;;;;;13.00;99.90;;;;;;7614424;19;19922;-74
2023/08/31 05:23:53;;;;;;;;;;;13.10;99.90;;;;;;7614783;19;20043;-74
2023/08/31 05:26:25;;;;;;;;;;;13.00;99.90;;;;;;7614550;19;20359;-74
2023/08/31 05:28:57;;;;;;;;;;;13.10;99.90;;;;;;7614241;19;19926;-74
2023/08/31 05:31:29;;;;;;;;;;;13.20;99.90;;;;;;7615049;19;19955;-74
2023/08/31 05:34:02;;;;;;;;;;;13.20;99.90;;;;;;7618185;19;19935;-74
2023/08/31 05:36:34;;;;;;;;;;;13.20;99.90;;;;;;7615458;19;19914;-74
2023/08/31 05:39:07;;;;;;;;;;;13.20;99.90;;;;;;7617035;19;19919;-72
2023/08/31 05:41:40;;;;;;;;;;;13.30;99.90;;;;;;7612090;19;19923;-74
2023/08/31 05:44:13;;;;;;;;;;;13.30;99.90;;;;;;7616755;19;19926;-73
2023/08/31 05:46:45;;;;;;;;;;;13.30;99.90;;;;;;7618808;19;20337;-73
2023/08/31 05:49:17;;;;;;;;;;;13.40;99.90;;;;;;7623750;19;19929;-74
2023/08/31 05:51:50;;;;;;;;;;;13.40;99.90;;;;;;7621657;19;19939;-74
2023/08/31 05:54:23;;;;;;;;;;;13.50;99.90;;;;;;7621164;19;19956;-74
2023/08/31 05:56:55;;;;;;;;;;;13.50;99.90;;;;;;7615690;19;19919;-73
2023/08/31 05:59:27;;;;;;;;;;;13.50;99.90;;;;;;7621004;19;19922;-74
2023/08/31 06:01:59;;;;;;;;;;;13.60;99.90;;;;;;7619425;19;19943;-73
2023/08/31 06:04:31;;;;;;;;;;;13.60;99.90;;;;;;7620071;19;19951;-73
2023/08/31 06:07:03;;;;;;;;;;;13.60;99.90;;;;;;7622181;19;19914;-73
2023/08/31 06:09:37;;;;;;;;;;;13.70;99.90;;;;;;7619410;19;19918;-74
2023/08/31 06:12:10;;;;;;;;;;;13.70;99.90;;;;;;7620901;19;19927;-74
2023/08/31 06:14:42;;;;;;;;;;;13.70;99.90;;;;;;7621087;19;19930;-74
2023/08/31 06:17:14;;;;;;;;;;;13.70;99.90;;;;;;7620070;19;20840;-73
2023/08/31 06:19:47;;;;;;;;;;;13.60;99.90;;;;;;7622029;19;19919;-74
2023/08/31 06:22:21;;;;;;;;;;;13.60;99.90;;;;;;7620467;19;19942;-74
2023/08/31 06:24:54;;;;;;;;;;;13.70;99.90;;;;;;7618683;19;19926;-74
2023/08/31 06:27:26;;;;;;;;;;;13.60;99.90;;;;;;7606435;19;19994;-74
2023/08/31 06:29:58;;;;;;;;;;;13.60;99.90;;;;;;7620436;19;21177;-74
2023/08/31 06:32:30;;;;;;;;;;;13.70;99.90;;;;;;7620712;19;19923;-74
2023/08/31 06:35:02;;;;;;;;;;;13.70;99.90;;;;;;7619176;19;19937;-73
2023/08/31 06:37:35;;;;;;;;;;;13.70;99.90;;;;;;7620399;19;19922;-73
2023/08/31 06:40:10;;;;;;;;;;;13.70;99.90;;;;;;7625472;19;20701;-74
2023/08/31 06:42:43;;;;;;;;;;;13.80;99.90;;;;;;7618907;19;20809;-74
2023/08/31 06:45:15;;;;;;;;;;;13.90;99.90;;;;;;7619082;19;20099;-73
2023/08/31 06:47:47;;;;;;;;;;;13.90;99.90;;;;;;7617148;19;19922;-75
2023/08/31 06:50:19;;;;;;;;;;;13.90;99.90;;;;;;7623092;19;19941;-74
2023/08/31 06:52:51;;;;;;;;;;;13.90;99.90;;;;;;7618603;19;19929;-73
2023/08/31 06:55:24;;;;;;;;;;;13.90;99.90;;;;;;7620574;19;19943;-73
2023/08/31 06:57:56;;;;;;;;;;;14.00;99.90;;;;;;7612612;19;19926;-75
2023/08/31 07:00:28;;;;;;;;;;;14.00;99.90;;;;;;7619010;19;19918;-74
2023/08/31 07:03:01;;;;;;;;;;;14.10;99.90;;;;;;7619695;19;19918;-74
2023/08/31 07:05:37;;;;;;;;;;;14.10;99.90;;;;;;7616740;19;19946;-75
2023/08/31 07:08:10;;;;;;;;;;;14.10;99.90;;;;;;7616773;19;20948;-74
2023/08/31 07:10:42;;;;;;;;;;;14.10;99.90;;;;;;7620438;19;19927;-74
2023/08/31 07:13:15;;;;;;;;;;;14.20;99.90;;;;;;7618401;19;19922;-75
2023/08/31 07:15:48;;;;;;;;;;;14.20;99.90;;;;;;7616815;19;19922;-73
2023/08/31 07:18:21;;;;;;;;;;;14.20;99.90;;;;;;7616878;19;19918;-74
2023/08/31 07:20:53;;;;;;;;;;;14.20;99.90;;;;;;7606255;19;19923;-75
2023/08/31 07:23:25;;;;;;;;;;;14.10;99.90;;;;;;7619202;19;20296;-74
2023/08/31 07:25:59;;;;;;;;;;;14.20;99.90;;;;;;7613608;19;19942;-75
2023/08/31 07:28:32;;;;;;;;;;;14.30;99.90;;;;;;7613658;19;19918;-75
2023/08/31 07:31:04;;;;;;;;;;;14.30;99.90;;;;;;7619129;19;19926;-74
2023/08/31 07:33:37;;;;;;;;;;;14.30;99.90;;;;;;7617405;19;19925;-73
2023/08/31 07:36:10;;;;;;;;;;;14.40;99.90;;;;;;7618605;19;19950;-75
2023/08/31 07:38:42;;;;;;;;;;;14.50;99.90;;;;;;7614665;19;19961;-74
2023/08/31 07:41:14;;;;;;;;;;;14.60;99.90;;;;;;7613353;19;19926;-73
2023/08/31 07:43:47;;;;;;;;;;;14.60;99.90;;;;;;7622014;19;19923;-75
2023/08/31 07:46:35;;;;;;;;;;;14.60;99.90;;;;;;7617622;19;19923;-75
2023/08/31 07:49:07;;;;;;;;;;;14.60;99.90;;;;;;7615848;19;19934;-74
2023/08/31 07:51:40;;;;;;;;;;;14.60;99.90;;;;;;7615048;19;20403;-75
2023/08/31 07:54:18;;;;;;;;;;;14.50;99.90;;;;;;7618543;19;19929;-74
2023/08/31 07:56:50;;;;;;;;;;;14.50;99.90;;;;;;7618147;19;19922;-75
2023/08/31 07:59:23;;;;;;;;;;;14.50;99.90;;;;;;7615893;19;19929;-75
2023/08/31 08:01:55;;;;;;;;;;;14.50;99.90;;;;;;7619707;19;19929;-73
2023/08/31 08:04:29;;;;;;;;;;;14.60;99.90;;;;;;7614529;19;19925;-73
2023/08/31 08:07:03;;;;;;;;;;;14.70;99.90;;;;;;7615393;19;19956;-73
2023/08/31 08:09:35;;;;;;;;;;;14.70;99.90;;;;;;7611381;19;19922;-75
2023/08/31 08:12:08;;;;;;;;;;;14.80;99.90;;;;;;7617704;19;19927;-74
2023/08/31 08:14:40;;;;;;;;;;;14.80;99.90;;;;;;7616962;19;20863;-75
2023/08/31 08:17:12;;;;;;;;;;;15.00;99.90;;;;;;7615116;19;20352;-74
2023/08/31 08:19:44;;;;;;;;;;;15.10;99.90;;;;;;7616192;19;19985;-75
2023/08/31 08:22:16;;;;;;;;;;;15.20;99.90;;;;;;7615878;19;19926;-75
2023/08/31 08:24:48;;;;;;;;;;;15.20;99.90;;;;;;7619862;19;19922;-75
2023/08/31 08:27:21;;;;;;;;;;;15.20;99.90;;;;;;7609994;19;20210;-74
2023/08/31 08:29:53;;;;;;;;;;;15.20;99.90;;;;;;7615615;19;19957;-75
2023/08/31 08:32:25;;;;;;;;;;;15.40;99.90;;;;;;7603089;19;19962;-75
2023/08/31 08:34:57;;;;;;;;;;;15.50;99.90;;;;;;7611235;19;20774;-75
2023/08/31 08:37:29;;;;;;;;;;;15.50;99.90;;;;;;7614671;19;19922;-76
2023/08/31 08:40:02;;;;;;;;;;;15.50;99.90;;;;;;7617433;19;20018;-73
2023/08/31 08:42:39;;;;;;;;;;;15.40;99.90;;;;;;7614341;19;19942;-75
2023/08/31 08:45:15;;;;;;;;;;;15.30;99.90;;;;;;7615554;19;19927;-74
2023/08/31 08:47:47;;;;;;;;;;;15.40;99.90;;;;;;7616968;19;19923;-73
2023/08/31 08:50:21;;;;;;;;;;;15.40;99.90;;;;;;7610022;19;20509;-75
2023/08/31 08:52:53;;;;;;;;;;;15.50;99.90;;;;;;7617131;19;19914;-75
2023/08/31 08:55:25;;;;;;;;;;;15.60;99.90;;;;;;7612442;19;20940;-74
2023/08/31 08:57:58;;;;;;;;;;;15.60;99.90;;;;;;7616359;19;19923;-73
2023/08/31 09:00:31;;;;;;;;;;;15.60;99.90;;;;;;7614942;19;20447;-75
2023/08/31 09:03:03;;;;;;;;;;;15.70;99.90;;;;;;7617036;19;19974;-74
2023/08/31 09:05:36;;;;;;;;;;;15.70;99.90;;;;;;7613982;19;19923;-75
2023/08/31 09:08:10;;;;;;;;;;;15.90;99.90;;;;;;7614092;19;19915;-74
2023/08/31 09:10:45;;;;;;;;;;;15.90;99.90;;;;;;7615492;19;19915;-75
2023/08/31 09:13:17;;;;;;;;;;;16.20;99.90;;;;;;7614075;19;20014;-74
2023/08/31 09:15:49;;;;;;;;;;;16.30;99.90;;;;;;7615204;19;19915;-74
2023/08/31 09:18:26;;;;;;;;;;;16.40;99.90;;;;;;7611559;19;19922;-75
2023/08/31 09:21:00;;;;;;;;;;;16.40;99.90;;;;;;7612580;19;19919;-73
2023/08/31 09:23:33;;;;;;;;;;;16.30;99.90;;;;;;7612798;19;19939;-74
2023/08/31 09:26:06;;;;;;;;;;;16.10;99.90;;;;;;7612881;19;20289;-75
2023/08/31 09:28:40;;;;;;;;;;;16.20;99.90;;;;;;7606863;19;19922;-75
2023/08/31 09:31:12;;;;;;;;;;;16.20;99.90;;;;;;7618001;19;19923;-74
2023/08/31 09:33:51;;;;;;;;;;;16.10;99.90;;;;;;7599400;19;19926;-74
2023/08/31 09:36:23;;;;;;;;;;;16.20;99.90;;;;;;7614543;19;19931;-75
2023/08/31 09:38:59;;;;;;;;;;;16.10;99.90;;;;;;7612618;19;20558;-75
2023/08/31 09:41:32;;;;;;;;;;;16.10;99.90;;;;;;7608468;19;19923;-75
2023/08/31 09:44:17;;;;;;;;;;;16.00;99.90;;;;;;7616034;19;20911;-75
2023/08/31 09:46:49;;;;;;;;;;;16.10;99.90;;;;;;7612901;19;19958;-75
2023/08/31 09:49:21;;;;;;;;;;;16.10;99.90;;;;;;7613869;19;19919;-74
2023/08/31 09:51:54;;;;;;;;;;;16.10;99.90;;;;;;7610062;19;19919;-76
2023/08/31 09:54:27;;;;;;;;;;;16.00;99.90;;;;;;7616153;19;19919;-74
2023/08/31 09:57:02;;;;;;;;;;;16.00;99.90;;;;;;7609075;19;19939;-74
2023/08/31 09:59:35;;;;;;;;;;;16.10;99.90;;;;;;7611205;19;19946;-75
2023/08/31 10:02:09;;;;;;;;;;;16.30;99.90;;;;;;7612059;19;19922;-75
2023/08/31 10:04:42;;;;;;;;;;;16.60;99.90;;;;;;7607756;19;19919;-74
2023/08/31 10:07:15;;;;;;;;;;;16.90;99.90;;;;;;7613999;19;19926;-75
2023/08/31 10:09:47;;;;;;;;;;;17.10;99.90;;;;;;7609317;19;19938;-75
2023/08/31 10:12:20;;;;;;;;;;;17.30;99.90;;;;;;7614295;19;20656;-74
2023/08/31 10:14:54;;;;;;;;;;;17.40;99.90;;;;;;7607587;19;19941;-75
2023/08/31 10:17:27;;;;;;;;;;;17.20;99.90;;;;;;7616089;19;19922;-75
2023/08/31 10:19:59;;;;;;;;;;;17.20;99.90;;;;;;7612331;19;19948;-75
2023/08/31 10:22:32;;;;;;;;;;;17.10;99.90;;;;;;7615091;19;19927;-74
2023/08/31 10:25:06;;;;;;;;;;;17.10;99.90;;;;;;7610434;19;19914;-75
2023/08/31 10:27:45;;;;;;;;;;;17.00;99.90;;;;;;7606962;19;20290;-74
2023/08/31 10:30:28;;;;;;;;;;;16.90;99.90;;;;;;7612956;19;20270;-75
2023/08/31 10:33:09;;;;;;;;;;;16.80;99.90;;;;;;7614390;19;19930;-75
2023/08/31 10:35:48;;;;;;;;;;;16.80;99.90;;;;;;7614279;19;19918;-74
2023/08/31 10:38:20;;;;;;;;;;;16.80;99.90;;;;;;7619656;19;19923;-74
2023/08/31 10:41:19;;;;;;;;;;;16.90;99.90;;;;;;7615503;19;19928;-75
2023/08/31 10:43:52;;;;;;;;;;;17.10;99.90;;;;;;7615554;19;19915;-74
2023/08/31 10:46:28;;;;;;;;;;;17.10;99.90;;;;;;7621060;19;19923;-75
2023/08/31 10:49:09;;;;;;;;;;;17.10;99.90;;;;;;7617074;19;19922;-75
2023/08/31 10:51:43;;;;;;;;;;;17.10;99.90;;;;;;7614657;19;19922;-75
2023/08/31 10:54:21;;;;;;;;;;;17.20;99.90;;;;;;7619847;19;19923;-75
2023/08/31 10:56:56;;;;;;;;;;;17.20;99.90;;;;;;7614177;19;19944;-75
2023/08/31 11:00:07;;;;;;;;;;;17.10;99.90;;;;;;7622203;19;20324;-75
2023/08/31 11:02:42;;;;;;;;;;;17.20;99.90;;;;;;7612322;19;19965;-75
2023/08/31 11:05:16;;;;;;;;;;;17.40;99.90;;;;;;7611450;19;20027;-75
2023/08/31 11:07:50;;;;;;;;;;;17.50;99.90;;;;;;7615681;19;19933;-74
2023/08/31 11:10:27;;;;;;;;;;;17.60;99.90;;;;;;7618055;19;19923;-75
2023/08/31 11:13:00;;;;;;;;;;;17.60;99.90;;;;;;7613835;19;20815;-75
2023/08/31 11:15:32;;;;;;;;;;;17.30;99.90;;;;;;7615750;19;19922;-75
2023/08/31 11:18:04;;;;;;;;;;;17.50;99.90;;;;;;7616522;19;19918;-75
2023/08/31 11:20:37;;;;;;;;;;;17.80;99.90;;;;;;7616160;19;19942;-75
2023/08/31 11:23:09;;;;;;;;;;;18.00;99.90;;;;;;7613760;19;19925;-75
2023/08/31 11:25:42;;;;;;;;;;;18.00;99.90;;;;;;7618222;19;20364;-75
2023/08/31 11:28:15;;;;;;;;;;;18.10;99.90;;;;;;7616668;19;19915;-75
2023/08/31 11:30:48;;;;;;;;;;;18.00;99.90;;;;;;7612904;19;19937;-75
2023/08/31 11:33:20;;;;;;;;;;;17.60;99.90;;;;;;7616258;19;19930;-75
2023/08/31 11:35:53;;;;;;;;;;;17.40;99.90;;;;;;7614711;19;19946;-75
2023/08/31 11:38:25;;;;;;;;;;;17.40;99.90;;;;;;7615436;19;19930;-76
2023/08/31 11:40:58;;;;;;;;;;;17.30;99.90;;;;;;7612286;19;19922;-75
2023/08/31 11:43:31;;;;;;;;;;;17.20;99.90;;;;;;7619384;19;19922;-75
2023/08/31 11:46:04;;;;;;;;;;;17.10;99.90;;;;;;7609438;19;20384;-75
2023/08/31 11:48:36;;;;;;;;;;;16.90;99.90;;;;;;7613986;19;19922;-75
2023/08/31 11:51:08;;;;;;;;;;;16.90;99.90;;;;;;7617648;19;20253;-75
2023/08/31 11:53:41;;;;;;;;;;;16.70;99.90;;;;;;7618248;19;19960;-76
2023/08/31 11:56:13;;;;;;;;;;;16.80;99.90;;;;;;7617776;19;19935;-75
2023/08/31 11:58:47;;;;;;;;;;;17.00;99.90;;;;;;7615922;19;19949;-75
2023/08/31 12:01:39;;;;;;;;;;;17.60;99.90;;;;;;7615800;19;19930;-73
2023/08/31 12:04:19;;;;;;;;;;;18.30;99.90;;;;;;7617239;19;20291;-75
2023/08/31 12:06:53;;;;;;;;;;;18.90;99.90;;;;;;7611936;19;19975;-74
2023/08/31 12:09:27;;;;;;;;;;;19.40;99.90;;;;;;7614010;19;19922;-76
2023/08/31 12:12:04;;;;;;;;;;;19.80;99.90;;;;;;7618186;19;19926;-75
2023/08/31 12:14:39;;;;;;;;;;;20.30;99.90;;;;;;7617569;19;19922;-75
2023/08/31 12:17:11;;;;;;;;;;;20.30;99.90;;;;;;7613604;19;19938;-75
2023/08/31 12:19:45;;;;;;;;;;;20.50;99.90;;;;;;7619274;19;19963;-76
2023/08/31 12:22:18;;;;;;;;;;;20.20;99.90;;;;;;7605045;19;20719;-76
2023/08/31 12:24:50;;;;;;;;;;;19.90;99.90;;;;;;7615076;19;19942;-75
2023/08/31 12:27:22;;;;;;;;;;;19.70;99.90;;;;;;7613085;19;20407;-75
2023/08/31 12:29:55;;;;;;;;;;;20.00;99.90;;;;;;7615302;19;20359;-75
2023/08/31 12:32:27;;;;;;;;;;;20.10;99.90;;;;;;7615286;19;19963;-74
2023/08/31 12:34:59;;;;;;;;;;;20.40;99.90;;;;;;7615232;19;19923;-75
2023/08/31 12:37:32;;;;;;;;;;;20.70;99.90;;;;;;7616516;19;20341;-76
2023/08/31 12:40:06;;;;;;;;;;;21.20;99.90;;;;;;7612589;19;19951;-75
2023/08/31 12:42:39;;;;;;;;;;;21.50;99.90;;;;;;7612900;19;19923;-75
2023/08/31 12:45:11;;;;;;;;;;;21.10;99.90;;;;;;7614774;19;19925;-74
2023/08/31 12:47:43;;;;;;;;;;;21.40;99.90;;;;;;7613072;19;20368;-75
2023/08/31 12:50:17;;;;;;;;;;;21.20;99.90;;;;;;7613153;19;19918;-75
2023/08/31 12:52:50;;;;;;;;;;;20.70;99.90;;;;;;7613657;19;19929;-75
2023/08/31 12:55:22;;;;;;;;;;;20.70;99.90;;;;;;7614098;19;19922;-76
2023/08/31 12:57:54;;;;;;;;;;;20.70;99.90;;;;;;7608256;19;19919;-75
2023/08/31 13:00:27;;;;;;;;;;;21.10;99.90;;;;;;7616722;19;20273;-76
2023/08/31 13:03:00;;;;;;;;;;;21.50;99.90;;;;;;7612735;19;20866;-76
2023/08/31 13:05:32;;;;;;;;;;;22.00;99.90;;;;;;7619716;19;19922;-76
2023/08/31 13:08:04;;;;;;;;;;;22.50;99.90;;;;;;7614488;19;19926;-76
2023/08/31 13:10:38;;;;;;;;;;;22.80;97.70;;;;;;7615301;19;19994;-75
2023/08/31 13:13:10;;;;;;;;;;;22.20;98.50;;;;;;7614481;19;19914;-76
2023/08/31 13:15:42;;;;;;;;;;;22.60;99.00;;;;;;7611449;19;19922;-76
2023/08/31 13:18:16;;;;;;;;;;;23.00;97.80;;;;;;7615668;19;19929;-75
2023/08/31 13:20:52;;;;;;;;;;;22.80;95.40;;;;;;7611947;19;20006;-75
2023/08/31 13:23:24;;;;;;;;;;;22.90;96.40;;;;;;7612789;19;19974;-76
2023/08/31 13:25:56;;;;;;;;;;;22.80;96.30;;;;;;7613695;19;20257;-75
2023/08/31 13:28:29;;;;;;;;;;;22.50;96.70;;;;;;7612328;19;20380;-76
2023/08/31 13:31:01;;;;;;;;;;;22.00;97.30;;;;;;7611155;19;20735;-75
2023/08/31 13:33:33;;;;;;;;;;;21.90;97.30;;;;;;7611676;19;19922;-75
2023/08/31 13:36:05;;;;;;;;;;;21.40;96.70;;;;;;7615916;19;19922;-75
2023/08/31 13:38:37;;;;;;;;;;;21.30;97.80;;;;;;7608106;19;20606;-76
2023/08/31 13:41:09;;;;;;;;;;;20.90;97.50;;;;;;7614035;19;19970;-75
2023/08/31 13:43:42;;;;;;;;;;;21.00;99.50;;;;;;7612523;19;19970;-75
2023/08/31 13:46:14;;;;;;;;;;;21.00;98.60;;;;;;7614959;19;20265;-76
2023/08/31 13:48:48;;;;;;;;;;;20.90;98.50;;;;;;7610775;19;20400;-74
2023/08/31 13:51:20;;;;;;;;;;;20.70;98.10;;;;;;7613021;19;19970;-76
2023/08/31 13:53:52;;;;;;;;;;;20.80;97.60;;;;;;7611733;19;19926;-75
2023/08/31 13:56:24;;;;;;;;;;;21.20;97.60;;;;;;7610385;19;19935;-75
2023/08/31 13:58:57;;;;;;;;;;;21.20;97.50;;;;;;7610394;19;20030;-75
2023/08/31 14:01:31;;;;;;;;;;;21.10;98.50;;;;;;7610940;19;19930;-76
2023/08/31 14:04:04;;;;;;;;;;;20.80;98.40;;;;;;7614004;19;19919;-75
2023/08/31 14:06:36;;;;;;;;;;;20.60;98.40;;;;;;7607788;19;19922;-75
2023/08/31 14:09:08;;;;;;;;;;;20.60;98.50;;;;;;7618624;19;19926;-75
2023/08/31 14:11:40;;;;;;;;;;;20.60;98.40;;;;;;7614375;19;19919;-75
2023/08/31 14:14:12;;;;;;;;;;;20.80;98.70;;;;;;7617106;19;19926;-75
2023/08/31 14:16:44;;;;;;;;;;;20.60;96.90;;;;;;7619859;19;20779;-76
2023/08/31 14:19:18;;;;;;;;;;;20.80;98.30;;;;;;7621758;19;20336;-75
2023/08/31 14:21:52;;;;;;;;;;;20.70;97.80;;;;;;7617937;19;20399;-73
2023/08/31 14:24:24;;;;;;;;;;;20.60;97.10;;;;;;7620652;19;20018;-74
2023/08/31 14:26:57;;;;;;;;;;;20.70;98.30;;;;;;7613495;19;19934;-74
2023/08/31 14:29:29;;;;;;;;;;;20.60;98.00;;;;;;7622356;19;19953;-73
2023/08/31 14:32:02;;;;;;;;;;;20.60;98.00;;;;;;7615078;19;19914;-74
2023/08/31 14:34:34;;;;;;;;;;;20.40;97.80;;;;;;7618892;19;19925;-73
2023/08/31 14:37:07;;;;;;;;;;;20.20;97.90;;;;;;7610678;19;19953;-74
2023/08/31 14:39:39;;;;;;;;;;;20.10;97.80;;;;;;7617530;19;19926;-74
2023/08/31 14:42:11;;;;;;;;;;;20.10;97.80;;;;;;7614080;19;19922;-74
2023/08/31 14:44:44;;;;;;;;;;;20.20;99.10;;;;;;7621063;19;19922;-73
2023/08/31 14:47:16;;;;;;;;;;;20.10;99.10;;;;;;7614172;19;19946;-74
2023/08/31 14:49:48;;;;;;;;;;;20.30;98.00;;;;;;7614685;19;19918;-73
2023/08/31 14:52:20;;;;;;;;;;;20.10;97.60;;;;;;7618314;19;19947;-74